Time;durP1;ratioP1;P1;durP2;ratioP2;P2;SDS_P1;SDS_P2;PMS_P1;PMS_P2;Temp;Humidity;BMP_temperature;BMP_pressure;BME280_temperature;BME280_humidity;BME280_pressure;Samples;Min_cycle;Max_cycle;Signal;HPM_P1;HPM_P2
2021/06/16 00:01:54;;;;;;;2.33;1.50;;;24.40;85.70;;;;;;5030928;28;20446;-69
2021/06/16 00:04:21;;;;;;;3.60;1.20;;;24.40;85.80;;;;;;5028811;28;20469;-69
2021/06/16 00:06:50;;;;;;;2.20;1.23;;;24.30;86.60;;;;;;5027429;28;20468;-69
2021/06/16 00:09:17;;;;;;;2.63;1.43;;;24.30;85.90;;;;;;5026709;28;20489;-69
2021/06/16 00:11:44;;;;;;;1.87;1.60;;;24.30;85.90;;;;;;5031662;28;20438;-70
2021/06/16 00:14:11;;;;;;;1.53;1.37;;;24.30;86.00;;;;;;5030077;28;20462;-70
2021/06/16 00:16:37;;;;;;;1.67;1.13;;;24.30;86.10;;;;;;5030834;28;20482;-69
2021/06/16 00:19:04;;;;;;;2.10;1.10;;;24.20;86.10;;;;;;5024604;28;20473;-69
2021/06/16 00:21:32;;;;;;;1.60;1.20;;;24.20;86.10;;;;;;5023270;28;20479;-69
2021/06/16 00:24:00;;;;;;;1.63;1.23;;;24.20;86.20;;;;;;5017187;28;20484;-69
2021/06/16 00:26:27;;;;;;;2.80;1.27;;;24.20;86.30;;;;;;5027938;28;20481;-69
2021/06/16 00:28:54;;;;;;;2.63;1.30;;;24.20;86.40;;;;;;5027676;28;20454;-69
2021/06/16 00:31:20;;;;;;;1.77;1.20;;;24.10;86.30;;;;;;5030343;28;20784;-69
2021/06/16 00:33:48;;;;;;;3.87;1.23;;;24.20;86.60;;;;;;5034882;28;20536;-69
2021/06/16 00:36:14;;;;;;;1.97;1.20;;;24.10;86.50;;;;;;5022804;28;21049;-68
2021/06/16 00:38:41;;;;;;;2.33;1.40;;;24.10;86.60;;;;;;5018006;28;20457;-69
2021/06/16 00:41:09;;;;;;;2.40;1.40;;;24.10;86.60;;;;;;5035141;28;20450;-68
2021/06/16 00:43:36;;;;;;;2.17;1.87;;;24.10;86.80;;;;;;5034020;28;20461;-69
2021/06/16 00:46:02;;;;;;;1.73;1.30;;;24.10;86.80;;;;;;5021407;28;20461;-69
2021/06/16 00:48:29;;;;;;;2.27;1.40;;;24.00;86.80;;;;;;5025773;28;20465;-69
2021/06/16 00:50:56;;;;;;;1.57;1.40;;;24.00;86.90;;;;;;5034972;28;20775;-69
2021/06/16 00:53:22;;;;;;;2.23;1.50;;;24.00;87.00;;;;;;5032625;28;20473;-68
2021/06/16 00:55:49;;;;;;;2.90;1.67;;;23.90;87.00;;;;;;5032985;28;20481;-69
2021/06/16 00:58:17;;;;;;;1.60;1.40;;;23.90;87.10;;;;;;5031380;28;20458;-68
2021/06/16 01:00:47;;;;;;;2.10;1.47;;;23.90;87.20;;;;;;5032224;28;20454;-68
2021/06/16 01:03:17;;;;;;;1.83;1.40;;;23.90;87.30;;;;;;5034761;28;20453;-68
2021/06/16 01:05:48;;;;;;;2.37;1.70;;;23.90;87.40;;;;;;5033403;28;20454;-68
2021/06/16 01:08:19;;;;;;;2.23;1.30;;;23.80;87.40;;;;;;5034035;28;20454;-68
2021/06/16 01:10:48;;;;;;;1.87;1.57;;;23.80;87.50;;;;;;5034552;28;20453;-69
2021/06/16 01:13:22;;;;;;;1.47;1.27;;;23.80;87.50;;;;;;5027959;28;20458;-68
2021/06/16 01:15:55;;;;;;;3.30;1.50;;;23.80;87.60;;;;;;5033765;28;20448;-68
2021/06/16 01:18:23;;;;;;;2.20;1.47;;;23.80;87.80;;;;;;5032774;28;20462;-68
2021/06/16 01:20:52;;;;;;;2.03;1.33;;;23.80;87.80;;;;;;5034053;28;20450;-68
2021/06/16 01:23:49;;;;;;;2.20;1.20;;;23.70;87.70;;;;;;5032386;28;20923;-68
2021/06/16 01:26:24;;;;;;;1.70;1.43;;;23.70;87.90;;;;;;5026197;28;20446;-68
2021/06/16 01:28:53;;;;;;;2.77;1.40;;;23.70;87.90;;;;;;5029825;28;20462;-68
2021/06/16 01:31:21;;;;;;;3.30;1.30;;;23.70;87.90;;;;;;5033950;28;20434;-69
2021/06/16 01:33:49;;;;;;;2.43;1.60;;;23.70;87.90;;;;;;5029923;28;20831;-68
2021/06/16 01:36:16;;;;;;;1.50;1.10;;;23.60;87.90;;;;;;5027560;28;20477;-68
2021/06/16 01:38:46;;;;;;;1.40;1.10;;;23.60;87.90;;;;;;5030562;28;20466;-68
2021/06/16 01:41:13;;;;;;;1.50;1.27;;;23.60;88.10;;;;;;5031540;28;20455;-68
2021/06/16 01:43:43;;;;;;;2.03;1.50;;;23.60;88.20;;;;;;5032880;28;20446;-68
2021/06/16 01:46:11;;;;;;;2.23;1.50;;;23.50;88.10;;;;;;5032052;28;20458;-68
2021/06/16 01:48:40;;;;;;;2.50;1.20;;;23.50;88.20;;;;;;5033292;28;20465;-68
2021/06/16 01:51:08;;;;;;;2.43;1.60;;;23.50;88.20;;;;;;5033684;28;20846;-68
2021/06/16 01:53:37;;;;;;;2.00;1.40;;;23.50;88.40;;;;;;5033632;28;21797;-68
2021/06/16 01:56:05;;;;;;;1.97;1.40;;;23.50;88.40;;;;;;5032372;28;20466;-68
2021/06/16 01:58:32;;;;;;;1.60;1.23;;;23.40;88.40;;;;;;5028426;28;20470;-68
2021/06/16 02:01:02;;;;;;;1.80;1.53;;;23.40;88.40;;;;;;5025218;28;20974;-68
2021/06/16 02:03:29;;;;;;;1.70;1.43;;;23.40;88.50;;;;;;5033298;28;20465;-69
2021/06/16 02:05:58;;;;;;;1.57;1.40;;;23.40;88.60;;;;;;5031425;28;20461;-68
2021/06/16 02:08:27;;;;;;;1.87;1.40;;;23.40;88.70;;;;;;5032889;28;20450;-68
2021/06/16 02:10:54;;;;;;;3.07;1.90;;;23.30;88.70;;;;;;5032875;28;20945;-68
2021/06/16 02:13:28;;;;;;;3.03;1.37;;;23.30;88.80;;;;;;5032191;28;20452;-69
2021/06/16 02:15:57;;;;;;;1.98;1.63;;;23.30;88.90;;;;;;5028896;28;20457;-69
2021/06/16 02:18:31;;;;;;;2.07;1.43;;;23.30;89.00;;;;;;5031408;28;20206;-68
2021/06/16 02:20:58;;;;;;;1.77;1.50;;;23.30;89.10;;;;;;5032313;28;20465;-68
2021/06/16 02:23:25;;;;;;;6.03;1.77;;;23.30;89.20;;;;;;5031514;28;20462;-68
2021/06/16 02:25:52;;;;;;;1.60;1.40;;;23.20;89.10;;;;;;5031903;28;20462;-69
2021/06/16 02:28:19;;;;;;;2.38;1.40;;;23.20;89.20;;;;;;5030047;28;20660;-68
2021/06/16 02:30:45;;;;;;;2.13;1.50;;;23.20;89.30;;;;;;5031754;28;20517;-69
2021/06/16 02:33:12;;;;;;;1.83;1.63;;;23.20;89.50;;;;;;5032757;28;20227;-68
2021/06/16 02:35:41;;;;;;;2.27;1.53;;;23.20;89.60;;;;;;5027253;28;20196;-68
2021/06/16 02:38:13;;;;;;;1.60;1.30;;;23.10;89.50;;;;;;5033023;28;20477;-68
2021/06/16 02:40:42;;;;;;;2.85;1.55;;;23.10;89.60;;;;;;5032247;28;20454;-68
2021/06/16 02:43:10;;;;;;;3.35;1.73;;;23.10;89.80;;;;;;5031660;28;20628;-68
2021/06/16 02:45:37;;;;;;;2.03;1.48;;;23.10;89.80;;;;;;5029119;28;20200;-69
2021/06/16 02:48:06;;;;;;;2.53;1.40;;;23.10;90.00;;;;;;5025994;28;20192;-69
2021/06/16 02:50:34;;;;;;;1.95;1.50;;;23.00;90.00;;;;;;5024125;28;20556;-69
2021/06/16 02:53:07;;;;;;;2.20;1.50;;;23.00;90.00;;;;;;5031389;28;20228;-69
2021/06/16 02:55:34;;;;;;;2.20;2.00;;;23.00;90.00;;;;;;5030853;28;20203;-69
2021/06/16 02:58:02;;;;;;;2.70;1.50;;;23.00;90.10;;;;;;5030984;28;20223;-70
2021/06/16 03:00:30;;;;;;;3.10;1.67;;;23.00;90.10;;;;;;5026523;28;20909;-70
2021/06/16 03:02:57;;;;;;;1.90;1.60;;;22.90;90.10;;;;;;5032667;28;20456;-69
2021/06/16 03:05:27;;;;;;;2.05;1.50;;;22.90;90.10;;;;;;5031260;28;20608;-69
2021/06/16 03:07:57;;;;;;;2.20;2.03;;;22.90;90.20;;;;;;5032123;28;20713;-69
2021/06/16 03:10:27;;;;;;;3.65;1.50;;;22.90;90.20;;;;;;5031933;28;20545;-69
2021/06/16 03:12:55;;;;;;;1.58;1.48;;;22.90;90.30;;;;;;5030599;28;20552;-69
2021/06/16 03:15:23;;;;;;;2.28;1.83;;;22.90;90.30;;;;;;5031061;28;20214;-69
2021/06/16 03:17:50;;;;;;;2.93;1.40;;;22.80;90.30;;;;;;5031081;28;20230;-69
2021/06/16 03:20:20;;;;;;;3.40;2.00;;;22.80;90.30;;;;;;5030743;28;20532;-69
2021/06/16 03:22:48;;;;;;;1.80;1.70;;;22.80;90.30;;;;;;5030842;28;20195;-69
2021/06/16 03:25:16;;;;;;;2.22;1.60;;;22.80;90.40;;;;;;5022904;28;20204;-69
2021/06/16 03:27:45;;;;;;;2.03;1.60;;;22.80;90.40;;;;;;5028061;28;20624;-69
2021/06/16 03:30:14;;;;;;;2.10;1.88;;;22.70;90.40;;;;;;5025193;28;20210;-69
2021/06/16 03:32:42;;;;;;;3.65;1.98;;;22.70;90.50;;;;;;5024947;28;20656;-69
2021/06/16 03:35:09;;;;;;;2.63;1.60;;;22.70;90.50;;;;;;5019010;28;20226;-69
2021/06/16 03:37:37;;;;;;;2.67;1.40;;;22.70;90.60;;;;;;5031106;28;20219;-69
2021/06/16 03:40:06;;;;;;;3.60;1.95;;;22.70;90.60;;;;;;5030225;28;20908;-69
2021/06/16 03:42:34;;;;;;;2.78;1.80;;;22.70;90.60;;;;;;5031947;28;20214;-69
2021/06/16 03:45:07;;;;;;;1.95;1.75;;;22.70;90.70;;;;;;5029391;28;20207;-69
2021/06/16 03:47:34;;;;;;;1.67;1.30;;;22.60;90.70;;;;;;5029308;28;20192;-69
2021/06/16 03:50:02;;;;;;;2.20;2.00;;;22.60;90.70;;;;;;5025383;28;20215;-69
2021/06/16 03:52:30;;;;;;;2.05;1.70;;;22.60;90.70;;;;;;5027229;28;20196;-69
2021/06/16 03:54:57;;;;;;;2.50;2.03;;;22.60;90.70;;;;;;5024797;28;20208;-69
2021/06/16 03:57:25;;;;;;;3.13;2.20;;;22.60;90.80;;;;;;5029139;28;20221;-69
2021/06/16 03:59:52;;;;;;;2.78;1.90;;;22.60;90.80;;;;;;5028975;28;20199;-69
2021/06/16 04:02:21;;;;;;;2.73;1.80;;;22.60;90.80;;;;;;5028338;28;20203;-69
2021/06/16 04:04:48;;;;;;;2.17;1.98;;;22.50;90.80;;;;;;5031468;28;20442;-69
2021/06/16 04:07:16;;;;;;;2.28;2.08;;;22.50;90.80;;;;;;5030280;28;20196;-69
2021/06/16 04:09:44;;;;;;;2.50;2.30;;;22.50;90.90;;;;;;5027084;28;20633;-69
2021/06/16 04:12:11;;;;;;;3.05;2.10;;;22.50;90.90;;;;;;5031429;28;20200;-69
2021/06/16 04:14:40;;;;;;;3.08;2.00;;;22.50;90.90;;;;;;5029205;28;20659;-69
2021/06/16 04:17:07;;;;;;;2.42;1.98;;;22.50;91.00;;;;;;5030373;28;20219;-68
2021/06/16 04:19:36;;;;;;;3.90;2.00;;;22.50;91.00;;;;;;5022899;28;20195;-69
2021/06/16 04:22:02;;;;;;;3.75;1.95;;;22.50;91.00;;;;;;5030673;28;20207;-69
2021/06/16 04:24:29;;;;;;;1.80;1.70;;;22.50;91.10;;;;;;5030317;28;20211;-70
2021/06/16 04:26:56;;;;;;;2.13;1.92;;;22.40;91.00;;;;;;5016421;28;20199;-69
2021/06/16 04:29:23;;;;;;;2.70;1.75;;;22.40;91.10;;;;;;5028107;28;20214;-69
2021/06/16 04:31:50;;;;;;;3.17;1.85;;;22.40;91.10;;;;;;5030761;28;20200;-70
2021/06/16 04:34:17;;;;;;;2.10;1.85;;;22.40;91.20;;;;;;5030562;28;20573;-70
2021/06/16 04:36:45;;;;;;;2.67;1.60;;;22.40;91.20;;;;;;5027390;28;20207;-69
2021/06/16 04:39:12;;;;;;;3.20;1.83;;;22.40;91.20;;;;;;5029030;28;20202;-69
2021/06/16 04:41:38;;;;;;;2.05;1.58;;;22.40;91.20;;;;;;5019242;28;20207;-69
2021/06/16 04:44:05;;;;;;;2.33;1.73;;;22.40;91.20;;;;;;5029398;28;20204;-69
2021/06/16 04:46:32;;;;;;;2.90;1.85;;;22.40;91.30;;;;;;5029513;28;20207;-70
2021/06/16 04:48:59;;;;;;;2.60;1.70;;;22.40;91.30;;;;;;5020283;28;20209;-69
2021/06/16 04:51:26;;;;;;;2.88;2.25;;;22.40;91.40;;;;;;5028729;28;20632;-69
2021/06/16 04:53:54;;;;;;;3.10;2.30;;;22.30;91.30;;;;;;5027803;28;20591;-69
2021/06/16 04:56:21;;;;;;;2.00;1.80;;;22.30;91.40;;;;;;5027056;28;20615;-69
2021/06/16 04:58:47;;;;;;;3.15;1.67;;;22.30;91.40;;;;;;5026699;28;20231;-69
2021/06/16 05:01:14;;;;;;;1.83;1.67;;;22.30;91.50;;;;;;5023578;28;20536;-69
2021/06/16 05:03:41;;;;;;;2.47;1.60;;;22.30;91.50;;;;;;5027036;28;20207;-68
2021/06/16 05:06:08;;;;;;;3.80;2.03;;;22.30;91.50;;;;;;5027379;28;20204;-69
2021/06/16 05:08:34;;;;;;;1.98;1.88;;;22.30;91.50;;;;;;5023643;28;20196;-69
2021/06/16 05:11:02;;;;;;;2.00;1.85;;;22.30;91.50;;;;;;5026550;28;20203;-69
2021/06/16 05:13:29;;;;;;;1.85;1.75;;;22.30;91.50;;;;;;5026088;28;20652;-69
2021/06/16 05:15:58;;;;;;;1.92;1.80;;;22.30;91.50;;;;;;5029244;28;20201;-69
2021/06/16 05:18:25;;;;;;;2.10;1.52;;;22.30;91.50;;;;;;5031474;28;20225;-69
2021/06/16 05:20:52;;;;;;;1.63;1.52;;;22.30;91.50;;;;;;5031344;28;20774;-69
2021/06/16 05:23:19;;;;;;;3.20;2.10;;;22.30;91.40;;;;;;5016160;28;20794;-69
2021/06/16 05:25:47;;;;;;;2.33;1.63;;;22.30;91.50;;;;;;5033780;28;20211;-69
2021/06/16 05:28:15;;;;;;;4.18;1.83;;;22.30;91.50;;;;;;5032543;28;20206;-69
2021/06/16 05:30:42;;;;;;;2.25;2.05;;;22.40;91.60;;;;;;5021537;28;20200;-69
2021/06/16 05:33:09;;;;;;;3.25;1.80;;;22.40;91.40;;;;;;5032290;28;20317;-69
2021/06/16 05:35:35;;;;;;;1.92;1.70;;;22.50;91.50;;;;;;5033524;28;20652;-70
2021/06/16 05:38:03;;;;;;;3.38;1.65;;;22.50;91.30;;;;;;5031977;28;20226;-69
2021/06/16 05:40:30;;;;;;;2.58;1.95;;;22.60;91.30;;;;;;5030863;28;20195;-69
2021/06/16 05:42:57;;;;;;;2.50;1.75;;;22.70;91.10;;;;;;5029419;28;20217;-69
2021/06/16 05:45:25;;;;;;;3.97;1.90;;;22.80;91.00;;;;;;5030845;28;20632;-69
2021/06/16 05:47:52;;;;;;;2.13;1.57;;;22.80;90.80;;;;;;5028162;28;20477;-69
2021/06/16 05:50:19;;;;;;;3.50;2.55;;;22.90;90.60;;;;;;5027903;28;20466;-70
2021/06/16 05:52:45;;;;;;;5.85;2.17;;;23.00;90.50;;;;;;5029993;28;20231;-69
2021/06/16 05:55:13;;;;;;;2.37;1.80;;;23.10;90.30;;;;;;5030087;28;20421;-69
2021/06/16 05:57:40;;;;;;;3.43;1.80;;;23.10;90.10;;;;;;5033247;28;20514;-69
2021/06/16 06:00:08;;;;;;;3.77;2.23;;;23.20;90.00;;;;;;5030628;28;20930;-70
2021/06/16 06:02:36;;;;;;;2.30;2.10;;;23.30;89.50;;;;;;5030092;28;20478;-69
2021/06/16 06:05:04;;;;;;;1.97;1.57;;;23.40;89.20;;;;;;5029091;28;20808;-70
2021/06/16 06:07:30;;;;;;;4.00;1.57;;;23.40;88.90;;;;;;5028286;28;20454;-69
2021/06/16 06:09:57;;;;;;;2.50;1.73;;;23.50;88.50;;;;;;5028485;28;20461;-69
2021/06/16 06:12:24;;;;;;;2.00;1.60;;;23.60;88.20;;;;;;5032993;28;20458;-69
2021/06/16 06:14:51;;;;;;;2.70;1.70;;;23.70;88.00;;;;;;5032663;28;20461;-69
2021/06/16 06:17:17;;;;;;;3.10;1.80;;;23.70;87.80;;;;;;5032909;28;20453;-69
2021/06/16 06:19:45;;;;;;;2.20;1.70;;;23.70;87.70;;;;;;5032017;28;20458;-69
2021/06/16 06:22:12;;;;;;;3.33;2.13;;;23.80;87.60;;;;;;5031427;28;20996;-69
2021/06/16 06:24:39;;;;;;;2.17;1.97;;;23.80;87.30;;;;;;5032010;28;20492;-69
2021/06/16 06:27:07;;;;;;;2.63;2.10;;;23.90;87.10;;;;;;5033155;28;20450;-69
2021/06/16 06:29:34;;;;;;;3.20;1.73;;;24.00;86.90;;;;;;5029311;28;20537;-70
2021/06/16 06:32:00;;;;;;;3.53;1.73;;;24.10;86.50;;;;;;5030770;28;20497;-69
2021/06/16 06:34:27;;;;;;;3.30;1.97;;;24.20;86.10;;;;;;5027431;28;20998;-69
2021/06/16 06:36:55;;;;;;;3.10;1.60;;;24.20;85.70;;;;;;5028639;28;20794;-69
2021/06/16 06:39:22;;;;;;;2.07;1.77;;;24.30;85.40;;;;;;5025534;28;20481;-69
2021/06/16 06:41:48;;;;;;;2.30;1.50;;;24.50;85.00;;;;;;5022519;28;20467;-69
2021/06/16 06:44:15;;;;;;;5.73;1.50;;;24.60;84.60;;;;;;5028531;28;20919;-69
2021/06/16 06:46:42;;;;;;;3.90;1.43;;;24.70;84.10;;;;;;5026077;28;20792;-69
2021/06/16 06:49:08;;;;;;;2.30;1.63;;;24.80;83.70;;;;;;5023808;28;20446;-69
2021/06/16 06:51:35;;;;;;;2.00;1.80;;;24.90;83.40;;;;;;5025151;28;20458;-70
2021/06/16 06:54:04;;;;;;;2.03;1.80;;;24.90;83.00;;;;;;5025974;28;20907;-70
2021/06/16 06:56:30;;;;;;;1.90;1.30;;;25.00;83.50;;;;;;5022475;28;20454;-70
2021/06/16 06:58:57;;;;;;;2.50;2.07;;;25.10;82.40;;;;;;5023944;28;20472;-70
2021/06/16 07:01:24;;;;;;;3.90;1.73;;;25.10;82.20;;;;;;5025079;28;20462;-70
2021/06/16 07:03:50;;;;;;;2.93;1.77;;;25.20;81.90;;;;;;5028076;28;20458;-69
2021/06/16 07:06:17;;;;;;;2.40;1.67;;;25.30;81.70;;;;;;5024902;28;20466;-69
2021/06/16 07:08:43;;;;;;;2.00;1.80;;;25.30;81.60;;;;;;5024807;28;20462;-70
2021/06/16 07:11:11;;;;;;;4.23;1.70;;;25.40;82.30;;;;;;5026834;28;20461;-70
2021/06/16 07:13:38;;;;;;;1.70;1.60;;;25.40;81.20;;;;;;5026018;28;20455;-68
2021/06/16 07:16:05;;;;;;;4.33;1.63;;;25.50;81.10;;;;;;5024283;28;20463;-68
2021/06/16 07:18:32;;;;;;;5.83;1.97;;;25.50;80.80;;;;;;5024843;28;20489;-68
2021/06/16 07:20:59;;;;;;;3.43;1.93;;;25.60;80.60;;;;;;5023134;28;20463;-68
2021/06/16 07:23:25;;;;;;;5.30;1.67;;;25.70;80.60;;;;;;5026214;28;20490;-68
2021/06/16 07:25:52;;;;;;;2.20;2.00;;;25.70;80.30;;;;;;5025896;28;20459;-68
2021/06/16 07:28:20;;;;;;;6.03;1.70;;;25.80;80.20;;;;;;5024201;28;20463;-68
2021/06/16 07:30:47;;;;;;;4.03;2.37;;;25.90;80.10;;;;;;5028664;28;20462;-68
2021/06/16 07:33:13;;;;;;;2.33;1.60;;;25.90;79.80;;;;;;5028999;28;20499;-68
2021/06/16 07:35:40;;;;;;;3.20;2.10;;;26.00;79.70;;;;;;5032528;28;20446;-68
2021/06/16 07:38:07;;;;;;;2.97;1.67;;;26.00;79.60;;;;;;5031871;28;20490;-73
2021/06/16 07:40:34;;;;;;;2.37;1.60;;;26.10;79.40;;;;;;5031475;28;20463;-68
2021/06/16 07:43:00;;;;;;;2.93;1.73;;;26.20;79.30;;;;;;5028466;28;20449;-68
2021/06/16 07:45:28;;;;;;;3.77;2.10;;;26.20;79.00;;;;;;5029476;28;20469;-68
2021/06/16 07:47:55;;;;;;;2.03;1.40;;;26.20;78.70;;;;;;5030364;28;20776;-68
2021/06/16 07:50:22;;;;;;;4.13;1.83;;;26.30;78.90;;;;;;5028021;28;20454;-69
2021/06/16 07:52:48;;;;;;;3.80;3.20;;;26.40;78.70;;;;;;5027231;28;20904;-68
2021/06/16 07:55:16;;;;;;;3.00;2.20;;;26.40;78.70;;;;;;5029114;28;20935;-68
2021/06/16 07:57:43;;;;;;;2.03;1.40;;;26.40;78.40;;;;;;5029118;28;20479;-69
2021/06/16 08:00:10;;;;;;;3.40;2.23;;;26.50;78.20;;;;;;5025855;28;20466;-68
2021/06/16 08:02:39;;;;;;;3.70;1.70;;;26.60;78.00;;;;;;5028666;28;20465;-69
2021/06/16 08:05:07;;;;;;;3.20;1.77;;;26.60;77.90;;;;;;5027621;28;20463;-69
2021/06/16 08:07:34;;;;;;;3.33;1.80;;;26.70;77.90;;;;;;5026239;28;20454;-68
2021/06/16 08:10:01;;;;;;;2.37;1.77;;;26.80;78.00;;;;;;5027971;28;20451;-68
2021/06/16 08:12:27;;;;;;;2.53;2.00;;;26.80;77.80;;;;;;5026060;28;20486;-69
2021/06/16 08:14:54;;;;;;;2.13;1.10;;;26.90;77.60;;;;;;5025062;28;20453;-68
2021/06/16 08:17:20;;;;;;;2.53;1.57;;;26.90;77.30;;;;;;5027401;28;20465;-68
2021/06/16 08:19:49;;;;;;;2.03;1.80;;;27.00;77.40;;;;;;5027815;28;20496;-68
2021/06/16 08:22:17;;;;;;;5.90;2.00;;;27.00;77.10;;;;;;5023741;28;20460;-68
2021/06/16 08:24:44;;;;;;;2.47;1.90;;;27.00;77.00;;;;;;5025035;28;21107;-67
2021/06/16 08:27:11;;;;;;;7.70;3.70;;;27.10;77.10;;;;;;5029769;28;20456;-67
2021/06/16 08:29:39;;;;;;;7.73;3.47;;;27.00;75.40;;;;;;5024136;28;20455;-68
2021/06/16 08:32:07;;;;;;;7.03;2.30;;;27.00;76.50;;;;;;5015484;28;20793;-68
2021/06/16 08:34:35;;;;;;;2.27;1.90;;;27.00;76.80;;;;;;5031242;28;20470;-68
2021/06/16 08:37:04;;;;;;;3.00;1.60;;;27.00;76.80;;;;;;5030717;28;20837;-68
2021/06/16 08:39:30;;;;;;;4.33;2.70;;;27.10;76.80;;;;;;5030447;28;20562;-68
2021/06/16 08:41:58;;;;;;;3.33;2.23;;;27.10;76.60;;;;;;5026067;28;20470;-68
2021/06/16 08:44:25;;;;;;;5.13;2.83;;;27.20;76.80;;;;;;5015441;28;20453;-68
2021/06/16 08:46:52;;;;;;;2.77;2.20;;;27.20;76.80;;;;;;5030544;28;20460;-68
2021/06/16 08:49:19;;;;;;;2.97;2.17;;;27.30;76.70;;;;;;5030706;28;20445;-68
2021/06/16 08:51:46;;;;;;;3.13;2.20;;;27.30;76.70;;;;;;5029984;28;21061;-68
2021/06/16 08:54:14;;;;;;;3.90;2.07;;;27.30;76.90;;;;;;5030807;28;20750;-68
2021/06/16 08:56:40;;;;;;;2.70;1.70;;;27.30;77.00;;;;;;5015055;28;20458;-68
2021/06/16 08:59:07;;;;;;;3.20;2.40;;;27.30;76.80;;;;;;5032863;28;20496;-67
2021/06/16 09:01:34;;;;;;;3.10;1.90;;;27.40;76.80;;;;;;5030994;28;20447;-68
2021/06/16 09:04:01;;;;;;;2.03;1.70;;;27.40;76.70;;;;;;5034150;28;20783;-67
2021/06/16 09:06:29;;;;;;;5.27;2.40;;;27.40;76.60;;;;;;5034531;28;20442;-68
2021/06/16 09:09:00;;;;;;;3.70;2.17;;;27.50;76.70;;;;;;5034305;28;20446;-68
2021/06/16 09:11:30;;;;;;;8.37;2.80;;;27.50;76.80;;;;;;5034179;28;20446;-68
2021/06/16 09:14:13;;;;;;;8.70;2.70;;;27.50;76.60;;;;;;5034284;28;20446;-68
2021/06/16 09:16:41;;;;;;;3.50;2.10;;;27.50;76.70;;;;;;5034355;28;20442;-68
2021/06/16 09:19:18;;;;;;;4.37;2.90;;;27.60;76.70;;;;;;5033789;28;20478;-68
2021/06/16 09:21:45;;;;;;;3.40;2.10;;;27.60;76.60;;;;;;5032577;28;20450;-68
2021/06/16 09:24:13;;;;;;;2.50;2.00;;;27.60;76.50;;;;;;5031577;28;20446;-68
2021/06/16 09:26:42;;;;;;;5.13;2.63;;;27.70;76.60;;;;;;5033624;28;20803;-68
2021/06/16 09:29:09;;;;;;;5.50;2.60;;;27.70;76.80;;;;;;5033325;28;20453;-68
2021/06/16 09:31:38;;;;;;;2.90;2.40;;;27.70;76.60;;;;;;5033522;28;20450;-68
2021/06/16 09:34:14;;;;;;;4.03;2.30;;;27.70;76.70;;;;;;5033097;28;20488;-69
2021/06/16 09:36:49;;;;;;;3.53;2.37;;;27.70;76.80;;;;;;5027436;28;20458;-68
2021/06/16 09:39:19;;;;;;;3.97;2.57;;;27.70;76.70;;;;;;5030519;28;20488;-68
2021/06/16 09:41:55;;;;;;;5.13;3.13;;;27.70;76.80;;;;;;5014309;28;20431;-68
2021/06/16 09:44:48;;;;;;;4.33;2.47;;;27.70;76.80;;;;;;5022478;28;20461;-69
2021/06/16 09:47:19;;;;;;;3.47;2.67;;;27.70;77.10;;;;;;5033649;28;20458;-69
2021/06/16 09:49:48;;;;;;;2.37;2.17;;;27.70;78.20;;;;;;5033116;28;20896;-68
2021/06/16 09:52:31;;;;;;;5.93;2.77;;;27.70;77.30;;;;;;5033379;28;20482;-69
2021/06/16 09:54:58;;;;;;;3.53;2.80;;;27.70;77.60;;;;;;5029718;28;20434;-68
2021/06/16 09:57:27;;;;;;;4.50;3.17;;;27.70;77.50;;;;;;5032671;28;20439;-69
2021/06/16 09:59:59;;;;;;;3.87;2.60;;;27.70;77.80;;;;;;5031237;28;20481;-68
2021/06/16 10:02:29;;;;;;;2.80;2.30;;;27.70;77.60;;;;;;5032524;28;20472;-69
2021/06/16 10:04:57;;;;;;;3.97;2.90;;;27.70;77.80;;;;;;5029792;28;20489;-68
2021/06/16 10:07:24;;;;;;;2.53;2.10;;;27.70;78.10;;;;;;5032288;28;20930;-68
2021/06/16 10:09:57;;;;;;;7.20;2.77;;;27.70;77.90;;;;;;5034001;28;20834;-69
2021/06/16 10:12:28;;;;;;;8.80;3.80;;;27.70;78.10;;;;;;5032915;28;20429;-69
2021/06/16 10:14:55;;;;;;;4.80;3.43;;;27.70;78.30;;;;;;5026638;28;20459;-69
2021/06/16 10:17:22;;;;;;;3.80;2.60;;;27.70;78.70;;;;;;5029018;28;20457;-68
2021/06/16 10:19:50;;;;;;;3.13;2.83;;;27.70;78.50;;;;;;5033205;28;20486;-68
2021/06/16 10:22:18;;;;;;;3.90;3.30;;;27.70;78.50;;;;;;5033869;28;20500;-68
2021/06/16 10:24:45;;;;;;;2.63;2.20;;;27.70;78.70;;;;;;5034154;28;20457;-69
2021/06/16 10:27:18;;;;;;;3.63;2.77;;;27.60;78.60;;;;;;5034151;28;20458;-69
2021/06/16 10:29:49;;;;;;;2.60;2.07;;;27.60;78.80;;;;;;5025837;28;20435;-69
2021/06/16 10:32:16;;;;;;;3.83;2.50;;;27.60;78.90;;;;;;5014493;28;20497;-69
2021/06/16 10:34:58;;;;;;;4.87;3.73;;;27.60;79.00;;;;;;5025646;28;20531;-68
2021/06/16 10:37:26;;;;;;;4.30;3.03;;;27.60;79.20;;;;;;5032663;28;20973;-67
2021/06/16 10:40:35;;;;;;;4.03;3.23;;;27.60;79.30;;;;;;5032799;28;20881;-68
2021/06/16 10:43:29;;;;;;;3.03;2.40;;;27.60;79.70;;;;;;5032688;28;20434;-68
2021/06/16 10:46:13;;;;;;;3.40;3.00;;;27.60;80.00;;;;;;5032611;28;20426;-67
2021/06/16 10:48:59;;;;;;;4.13;2.83;;;27.60;80.00;;;;;;5011784;28;20560;-68
2021/06/16 10:51:42;;;;;;;3.07;2.87;;;27.60;80.30;;;;;;5030811;28;20446;-70
2021/06/16 10:54:14;;;;;;;3.57;3.27;;;27.60;80.20;;;;;;5021705;28;20547;-70
2021/06/16 10:56:43;;;;;;;3.23;2.93;;;27.60;80.30;;;;;;5012585;28;20458;-69
2021/06/16 10:59:10;;;;;;;3.97;3.13;;;27.60;80.70;;;;;;5028328;28;20470;-70
2021/06/16 11:01:48;;;;;;;3.90;3.20;;;27.60;80.80;;;;;;5031951;28;20454;-70
2021/06/16 11:04:28;;;;;;;5.00;3.20;;;27.60;81.00;;;;;;5024254;28;20450;-69
2021/06/16 11:06:55;;;;;;;3.57;3.23;;;27.60;81.30;;;;;;5030845;28;20446;-69
2021/06/16 11:09:50;;;;;;;10.40;3.17;;;27.60;81.10;;;;;;5030871;28;20455;-69
2021/06/16 11:12:16;;;;;;;3.20;2.90;;;27.60;81.60;;;;;;5012222;28;20438;-70
2021/06/16 11:14:47;;;;;;;3.70;3.17;;;27.60;81.30;;;;;;5026752;28;20446;-70
2021/06/16 11:17:42;;;;;;;3.60;3.30;;;27.60;81.40;;;;;;5027202;28;20875;-69
2021/06/16 11:20:11;;;;;;;3.20;2.90;;;27.60;81.70;;;;;;5024380;28;20485;-70
2021/06/16 11:22:40;;;;;;;3.20;2.90;;;27.60;81.80;;;;;;5031912;28;20937;-69
2021/06/16 11:25:35;;;;;;;4.40;2.67;;;27.60;81.90;;;;;;5031988;28;20442;-69
2021/06/16 11:28:08;;;;;;;4.20;3.40;;;27.60;82.00;;;;;;5031364;28;20450;-70
2021/06/16 11:30:41;;;;;;;7.00;3.80;;;27.60;82.40;;;;;;5031662;28;20441;-70
2021/06/16 11:33:33;;;;;;;2.93;2.73;;;27.60;82.30;;;;;;5031376;28;20482;-70
2021/06/16 11:36:06;;;;;;;3.60;3.30;;;27.60;81.90;;;;;;5031327;28;20458;-68
2021/06/16 11:38:34;;;;;;;3.73;3.30;;;27.60;81.90;;;;;;5032082;28;20423;-68
2021/06/16 11:41:18;;;;;;;4.27;3.87;;;27.60;82.00;;;;;;5031318;28;20481;-69
2021/06/16 11:43:47;;;;;;;5.07;3.10;;;27.60;82.60;;;;;;5027412;28;20461;-67
2021/06/16 11:46:16;;;;;;;4.77;4.27;;;27.60;83.00;;;;;;5031668;28;20438;-68
2021/06/16 11:48:47;;;;;;;4.20;3.90;;;27.70;83.00;;;;;;5031362;28;20473;-68
2021/06/16 11:51:34;;;;;;;8.00;3.80;;;27.70;82.90;;;;;;5031570;28;20545;-68
2021/06/16 11:54:20;;;;;;;4.40;3.47;;;27.70;83.20;;;;;;5032059;28;20446;-68
2021/06/16 11:56:48;;;;;;;3.97;3.67;;;27.70;83.10;;;;;;5030787;28;20458;-68
2021/06/16 11:59:15;;;;;;;5.10;4.60;;;27.70;83.40;;;;;;5029495;28;20505;-68
2021/06/16 12:01:42;;;;;;;5.73;4.40;;;27.70;83.20;;;;;;5031618;28;20458;-68
2021/06/16 12:04:13;;;;;;;4.90;4.30;;;27.70;83.10;;;;;;5030583;28;20463;-68
2021/06/16 12:06:42;;;;;;;6.60;4.50;;;27.70;83.30;;;;;;5030317;28;20457;-68
2021/06/16 12:09:09;;;;;;;7.60;5.00;;;27.70;83.30;;;;;;5030407;28;20450;-68
2021/06/16 12:11:36;;;;;;;4.07;3.77;;;27.60;83.50;;;;;;5030121;28;20458;-67
2021/06/16 12:14:06;;;;;;;4.50;4.20;;;27.60;83.40;;;;;;5029676;28;20933;-67
2021/06/16 12:16:35;;;;;;;4.70;4.30;;;27.60;83.90;;;;;;5028909;28;20446;-68
2021/06/16 12:19:16;;;;;;;4.80;4.40;;;27.60;83.70;;;;;;5010720;28;20474;-67
2021/06/16 12:22:02;;;;;;;4.83;3.70;;;27.60;84.10;;;;;;5023873;28;20447;-68
2021/06/16 12:24:31;;;;;;;5.30;4.80;;;27.60;83.90;;;;;;5016821;28;20442;-69
2021/06/16 12:27:10;;;;;;;4.07;3.77;;;27.60;84.70;;;;;;5031150;28;20914;-69
2021/06/16 12:29:43;;;;;;;5.60;5.20;;;27.60;84.60;;;;;;5037521;28;20539;-69
2021/06/16 12:32:10;;;;;;;4.30;4.00;;;27.60;84.60;;;;;;5037394;28;20450;-70
2021/06/16 12:34:55;;;;;;;5.10;4.70;;;27.60;84.80;;;;;;5037230;28;20465;-70
2021/06/16 12:37:22;;;;;;;4.50;4.10;;;27.60;84.70;;;;;;5037843;28;20484;-70
2021/06/16 12:39:53;;;;;;;8.80;6.70;;;27.60;84.80;;;;;;5038032;28;20532;-70
2021/06/16 12:42:20;;;;;;;6.63;5.67;;;27.60;85.20;;;;;;5038476;28;20446;-70
2021/06/16 12:44:47;;;;;;;5.33;4.40;;;27.70;85.30;;;;;;5038121;28;20882;-69
2021/06/16 12:47:19;;;;;;;5.00;4.50;;;27.60;85.00;;;;;;5036937;28;20461;-70
2021/06/16 12:49:51;;;;;;;4.77;4.37;;;27.60;85.60;;;;;;5038112;28;20446;-70
2021/06/16 12:52:29;;;;;;;7.43;4.77;;;27.70;85.50;;;;;;5038284;28;20846;-70
2021/06/16 12:55:07;;;;;;;5.40;4.70;;;27.60;85.70;;;;;;5018975;28;20454;-70
2021/06/16 12:57:43;;;;;;;4.17;3.87;;;27.70;85.70;;;;;;5019595;28;20461;-71
2021/06/16 13:00:13;;;;;;;7.33;4.43;;;27.60;86.00;;;;;;5018894;28;20494;-70